createdAt,value
2018-05-02T00:00:49.421Z,5.87
2018-05-02T00:01:49.409Z,5.87
2018-05-02T00:02:49.398Z,5.86
2018-05-02T00:03:49.386Z,5.84
2018-05-02T00:04:49.378Z,5.87
2018-05-02T00:05:49.366Z,5.79
2018-05-02T00:06:49.351Z,5.91
2018-05-02T00:07:49.340Z,5.91
2018-05-02T00:08:49.328Z,5.90
2018-05-02T00:09:49.317Z,5.94
2018-05-02T00:10:49.305Z,5.91
2018-05-02T00:11:49.294Z,5.89
2018-05-02T00:12:49.281Z,5.90
2018-05-02T00:13:49.271Z,5.90
2018-05-02T00:14:49.259Z,5.89
2018-05-02T00:15:49.247Z,5.75
2018-05-02T00:16:49.235Z,5.72
2018-05-02T00:17:49.224Z,5.68
2018-05-02T00:18:49.211Z,5.65
2018-05-02T00:19:49.201Z,5.51
2018-05-02T00:20:49.188Z,5.48
2018-05-02T00:21:49.176Z,5.53
2018-05-02T00:22:49.165Z,5.41
2018-05-02T00:23:49.156Z,5.47
2018-05-02T00:24:49.142Z,5.46
2018-05-02T00:25:49.130Z,5.44
2018-05-02T00:26:49.119Z,5.36
2018-05-02T00:27:49.107Z,5.35
2018-05-02T00:28:49.095Z,5.35
2018-05-02T00:29:49.083Z,5.32
2018-05-02T00:30:49.072Z,5.38
2018-05-02T00:31:49.061Z,5.33
2018-05-02T00:32:49.048Z,5.26
2018-05-02T00:33:49.042Z,5.21
2018-05-02T00:34:49.026Z,5.25
2018-05-02T00:35:49.014Z,5.26
2018-05-02T00:36:49.004Z,5.30
2018-05-02T00:37:48.989Z,5.33
2018-05-02T00:38:48.979Z,5.30
2018-05-02T00:39:48.967Z,5.29
2018-05-02T00:40:48.954Z,5.33
2018-05-02T00:41:48.943Z,5.35
2018-05-02T00:42:48.931Z,5.35
2018-05-02T00:43:48.921Z,5.28
2018-05-02T00:44:48.911Z,5.25
2018-05-02T00:45:48.896Z,5.28
2018-05-02T00:46:48.885Z,5.30
2018-05-02T00:47:48.873Z,5.32
2018-05-02T00:48:48.861Z,5.38
2018-05-02T00:49:48.849Z,5.41
2018-05-02T00:50:48.837Z,5.39
2018-05-02T00:51:48.826Z,5.36
2018-05-02T00:52:48.813Z,5.38
2018-05-02T00:53:48.806Z,5.39
2018-05-02T00:54:48.791Z,5.28
2018-05-02T00:55:48.782Z,5.25
2018-05-02T00:56:48.767Z,5.26
2018-05-02T00:57:48.755Z,5.23
2018-05-02T00:58:48.744Z,5.20
2018-05-02T00:59:48.733Z,5.17
2018-05-02T01:00:48.729Z,5.10
2018-05-02T01:01:48.708Z,5.12
2018-05-02T01:02:48.696Z,5.10
2018-05-02T01:03:48.687Z,5.08
2018-05-02T01:04:48.673Z,5.04
2018-05-02T01:05:48.662Z,5.10
2018-05-02T01:06:48.650Z,5.05
2018-05-02T01:07:48.639Z,5.07
2018-05-02T01:08:48.625Z,5.10
2018-05-02T01:09:48.617Z,5.10
2018-05-02T01:10:48.602Z,5.08
2018-05-02T01:11:48.591Z,5.17
2018-05-02T01:12:48.578Z,5.20
2018-05-02T01:13:48.567Z,5.18
2018-05-02T01:14:48.555Z,5.17
2018-05-02T01:15:48.545Z,5.26
2018-05-02T01:16:48.531Z,5.18
2018-05-02T01:17:48.519Z,5.11
2018-05-02T01:18:48.509Z,5.08
2018-05-02T01:19:48.495Z,5.11
2018-05-02T01:20:48.483Z,5.15
2018-05-02T01:21:48.476Z,5.18
2018-05-02T01:22:48.459Z,5.14
2018-05-02T01:23:48.447Z,5.15
2018-05-02T01:24:48.434Z,5.23
2018-05-02T01:25:48.422Z,5.29
2018-05-02T01:26:48.410Z,5.26
2018-05-02T01:27:48.399Z,5.10
2018-05-02T01:28:48.386Z,5.08
2018-05-02T01:29:48.375Z,5.07
2018-05-02T01:30:48.363Z,5.02
2018-05-02T01:31:48.350Z,5.00
2018-05-02T01:32:48.338Z,4.94
2018-05-02T01:33:48.326Z,4.94
2018-05-02T01:34:48.314Z,4.92
2018-05-02T01:35:48.306Z,4.86
2018-05-02T01:36:48.290Z,4.90
2018-05-02T01:37:48.277Z,4.89
2018-05-02T01:38:48.266Z,4.89
2018-05-02T01:39:48.254Z,4.84
2018-05-02T01:40:48.241Z,4.80
2018-05-02T01:41:48.229Z,4.71
2018-05-02T01:42:48.217Z,4.74
2018-05-02T01:43:48.206Z,4.78
2018-05-02T01:44:48.193Z,4.73
2018-05-02T01:45:48.181Z,4.71
2018-05-02T01:46:48.169Z,4.84
2018-05-02T01:47:48.157Z,4.70
2018-05-02T01:48:48.144Z,4.74
2018-05-02T01:49:48.132Z,4.74
2018-05-02T01:50:48.120Z,4.70
2018-05-02T01:51:48.109Z,4.73
2018-05-02T01:52:48.096Z,4.78
2018-05-02T01:53:48.084Z,4.74
2018-05-02T01:54:48.075Z,4.75
2018-05-02T01:55:48.061Z,4.80
2018-05-02T01:56:48.047Z,4.84
2018-05-02T01:57:48.036Z,4.74
2018-05-02T01:58:48.023Z,4.73
2018-05-02T01:59:48.012Z,4.73
2018-05-02T02:00:47.999Z,4.77
2018-05-02T02:01:47.987Z,4.68
2018-05-02T02:02:47.974Z,4.70
2018-05-02T02:03:47.963Z,4.73
2018-05-02T02:04:47.950Z,4.70
2018-05-02T02:05:47.937Z,4.52
2018-05-02T02:06:47.927Z,4.53
2018-05-02T02:07:47.914Z,4.58
2018-05-02T02:08:47.901Z,4.56
2018-05-02T02:09:47.890Z,4.45
2018-05-02T02:10:47.877Z,4.49
2018-05-02T02:11:47.874Z,4.42
2018-05-02T02:12:47.856Z,4.48
2018-05-02T02:13:47.841Z,4.44
2018-05-02T02:14:47.829Z,4.49
2018-05-02T02:15:47.817Z,4.58
2018-05-02T02:16:47.806Z,4.59
2018-05-02T02:17:47.792Z,4.55
2018-05-02T02:18:47.781Z,4.62
2018-05-02T02:19:47.769Z,4.48
2018-05-02T02:20:47.756Z,4.49
2018-05-02T02:21:47.744Z,4.62
2018-05-02T02:22:47.732Z,4.60
2018-05-02T02:23:47.725Z,4.59
2018-05-02T02:24:47.706Z,4.58
2018-05-02T02:25:47.694Z,4.59
2018-05-02T02:26:47.686Z,4.55
2018-05-02T02:27:47.670Z,4.53
2018-05-02T02:28:47.657Z,4.53
2018-05-02T02:29:47.645Z,4.59
2018-05-02T02:30:47.633Z,4.59
2018-05-02T02:31:47.624Z,4.59
2018-05-02T02:32:47.607Z,4.60
2018-05-02T02:33:47.595Z,4.56
2018-05-02T02:34:47.583Z,4.58
2018-05-02T02:35:47.572Z,4.52
2018-05-02T02:36:47.558Z,4.53
2018-05-02T02:37:47.552Z,4.56
2018-05-02T02:38:47.534Z,4.45
2018-05-02T02:39:47.524Z,4.56
2018-05-02T02:40:47.514Z,4.53
2018-05-02T02:41:47.497Z,4.45
2018-05-02T02:42:47.485Z,4.49
2018-05-02T02:43:47.473Z,4.44
2018-05-02T02:44:47.459Z,4.42
2018-05-02T02:45:47.448Z,4.50
2018-05-02T02:46:47.436Z,4.41
2018-05-02T02:47:47.423Z,4.44
2018-05-02T02:48:47.411Z,4.31
2018-05-02T02:49:47.399Z,4.34
2018-05-02T02:50:47.387Z,4.38
2018-05-02T02:51:47.374Z,4.26
2018-05-02T02:52:47.362Z,4.35
2018-05-02T02:53:47.349Z,4.20
2018-05-02T02:54:47.338Z,4.10
2018-05-02T02:55:47.326Z,4.13
2018-05-02T02:56:47.313Z,4.04
2018-05-02T02:57:47.301Z,4.16
2018-05-02T02:58:47.288Z,4.13
2018-05-02T02:59:47.276Z,4.02
2018-05-02T03:00:47.263Z,3.98
2018-05-02T03:01:47.254Z,4.05
2018-05-02T03:02:47.240Z,4.02
2018-05-02T03:03:47.227Z,4.02
2018-05-02T03:04:47.215Z,3.98
2018-05-02T03:05:47.202Z,4.01
2018-05-02T03:06:47.190Z,4.10
2018-05-02T03:07:47.179Z,4.08
2018-05-02T03:08:47.165Z,4.13
2018-05-02T03:09:47.153Z,4.12
2018-05-02T03:10:47.158Z,4.05
2018-05-02T03:11:47.129Z,4.06
2018-05-02T03:12:47.116Z,4.08
2018-05-02T03:13:47.103Z,4.10
2018-05-02T03:14:47.091Z,4.02
2018-05-02T03:15:47.079Z,4.08
2018-05-02T03:16:47.066Z,4.13
2018-05-02T03:17:47.058Z,3.98
2018-05-02T03:18:47.042Z,4.06
2018-05-02T03:19:47.029Z,4.06
2018-05-02T03:20:47.016Z,3.95
2018-05-02T03:21:47.004Z,3.94
2018-05-02T03:22:46.991Z,3.87
2018-05-02T03:23:46.980Z,3.83
2018-05-02T03:24:46.967Z,3.86
2018-05-02T03:25:46.956Z,4.01
2018-05-02T03:26:46.942Z,3.86
2018-05-02T03:27:46.929Z,3.91
2018-05-02T03:28:46.917Z,3.94
2018-05-02T03:29:46.904Z,3.84
2018-05-02T03:30:46.894Z,3.87
2018-05-02T03:31:46.880Z,3.83
2018-05-02T03:32:46.866Z,3.80
2018-05-02T03:33:46.854Z,3.70
2018-05-02T03:34:46.841Z,3.69
2018-05-02T03:35:46.830Z,3.62
2018-05-02T03:36:46.819Z,3.69
2018-05-02T03:37:46.804Z,3.62
2018-05-02T03:38:46.791Z,3.51
2018-05-02T03:39:46.780Z,3.66
2018-05-02T03:40:46.766Z,3.56
2018-05-02T03:41:46.754Z,3.62
2018-05-02T03:42:46.741Z,3.56
2018-05-02T03:43:46.729Z,3.55
2018-05-02T03:44:46.718Z,3.45
2018-05-02T03:45:46.704Z,3.41
2018-05-02T03:46:46.692Z,3.45
2018-05-02T03:47:46.679Z,3.47
2018-05-02T03:48:46.665Z,3.41
2018-05-02T03:49:46.653Z,3.44
2018-05-02T03:50:46.640Z,3.50
2018-05-02T03:51:46.628Z,3.42
2018-05-02T03:52:46.615Z,3.41
2018-05-02T03:53:46.606Z,3.42
2018-05-02T03:54:46.590Z,3.47
2018-05-02T03:55:46.578Z,3.42
2018-05-02T03:56:46.564Z,3.44
2018-05-02T03:57:46.557Z,3.47
2018-05-02T03:58:46.540Z,3.45
2018-05-02T03:59:46.617Z,3.45
2018-05-02T04:00:46.515Z,3.36
2018-05-02T04:01:46.502Z,3.31
2018-05-02T04:02:46.489Z,3.31
2018-05-02T04:03:46.477Z,3.31
2018-05-02T04:04:46.464Z,3.32
2018-05-02T04:05:46.451Z,3.32
2018-05-02T04:06:46.439Z,3.32
2018-05-02T04:07:46.426Z,3.31
2018-05-02T04:08:46.413Z,3.25
2018-05-02T04:09:46.400Z,3.28
2018-05-02T04:10:46.389Z,3.32
2018-05-02T04:11:46.376Z,3.29
2018-05-02T04:12:46.363Z,3.26
2018-05-02T04:13:46.350Z,3.28
2018-05-02T04:14:46.337Z,3.28
2018-05-02T04:15:46.325Z,3.28
2018-05-02T04:16:46.312Z,3.28
2018-05-02T04:17:46.299Z,3.31
2018-05-02T04:18:46.362Z,3.36
2018-05-02T04:19:46.274Z,3.40
2018-05-02T04:20:46.261Z,3.42
2018-05-02T04:21:46.249Z,3.40
2018-05-02T04:22:46.237Z,3.47
2018-05-02T04:23:46.224Z,3.42
2018-05-02T04:24:46.211Z,3.45
2018-05-02T04:25:46.198Z,3.42
2018-05-02T04:26:46.186Z,3.42
2018-05-02T04:27:46.174Z,3.59
2018-05-02T04:28:46.160Z,3.55
2018-05-02T04:29:46.148Z,3.68
2018-05-02T04:30:46.136Z,3.66
2018-05-02T04:31:46.123Z,3.60
2018-05-02T04:32:46.110Z,3.73
2018-05-02T04:33:46.098Z,3.80
2018-05-02T04:34:46.085Z,3.88
2018-05-02T04:35:46.075Z,3.95
2018-05-02T04:36:46.060Z,4.05
2018-05-02T04:37:46.047Z,4.08
2018-05-02T04:38:46.036Z,4.13
2018-05-02T04:39:46.023Z,4.20
2018-05-02T04:40:46.009Z,4.17
2018-05-02T04:41:45.997Z,4.30
2018-05-02T04:42:45.985Z,4.32
2018-05-02T04:43:45.973Z,4.30
2018-05-02T04:44:45.960Z,4.26
2018-05-02T04:45:45.950Z,4.32
2018-05-02T04:46:45.936Z,4.26
2018-05-02T04:47:45.923Z,4.35
2018-05-02T04:48:45.911Z,4.40
2018-05-02T04:49:45.899Z,4.45
2018-05-02T04:50:45.886Z,4.42
2018-05-02T04:51:45.874Z,4.38
2018-05-02T04:52:45.893Z,4.44
2018-05-02T04:53:45.849Z,4.45
2018-05-02T04:54:45.837Z,4.48
2018-05-02T04:55:45.827Z,4.44
2018-05-02T04:56:45.812Z,4.48
2018-05-02T04:57:45.800Z,4.56
2018-05-02T04:58:45.789Z,4.56
2018-05-02T04:59:45.776Z,4.60
2018-05-02T05:00:45.763Z,4.68
2018-05-02T05:01:45.751Z,4.70
2018-05-02T05:02:45.739Z,4.74
2018-05-02T05:03:45.726Z,4.89
2018-05-02T05:04:45.714Z,4.92
2018-05-02T05:05:45.702Z,4.89
2018-05-02T05:06:45.691Z,4.87
2018-05-02T05:07:45.679Z,4.78
2018-05-02T05:08:45.667Z,4.89
2018-05-02T05:09:45.656Z,4.87
2018-05-02T05:10:45.641Z,4.92
2018-05-02T05:11:45.630Z,4.96
2018-05-02T05:12:45.618Z,5.02
2018-05-02T05:13:45.605Z,5.00
2018-05-02T05:14:45.594Z,5.11
2018-05-02T05:15:45.581Z,5.15
2018-05-02T05:16:45.569Z,5.23
2018-05-02T05:17:45.558Z,5.30
2018-05-02T05:18:45.545Z,5.30
2018-05-02T05:19:45.534Z,5.35
2018-05-02T05:20:45.521Z,5.39
2018-05-02T05:21:45.509Z,5.48
2018-05-02T05:22:45.499Z,5.62
2018-05-02T05:23:45.487Z,5.68
2018-05-02T05:24:45.477Z,5.71
2018-05-02T05:25:45.463Z,5.71
2018-05-02T05:26:45.451Z,5.75
2018-05-02T05:27:45.439Z,5.86
2018-05-02T05:28:45.427Z,5.89
2018-05-02T05:29:45.416Z,5.94
2018-05-02T05:30:45.405Z,5.97
2018-05-02T05:31:45.393Z,5.94
2018-05-02T05:32:45.381Z,5.89
2018-05-02T05:33:45.371Z,5.98
2018-05-02T05:34:45.359Z,6.02
2018-05-02T05:35:45.348Z,6.04
2018-05-02T05:36:45.336Z,6.11
2018-05-02T05:37:45.325Z,6.24
2018-05-02T05:38:45.315Z,6.24
2018-05-02T05:39:45.305Z,6.35
2018-05-02T05:40:45.291Z,6.39
2018-05-02T05:41:45.280Z,6.35
2018-05-02T05:42:45.271Z,6.52
2018-05-02T05:43:45.259Z,6.59
2018-05-02T05:44:45.247Z,6.69
2018-05-02T05:45:45.236Z,6.79
2018-05-02T05:46:45.226Z,6.92
2018-05-02T05:47:45.217Z,7.05
2018-05-02T05:48:45.203Z,6.99
2018-05-02T05:49:45.192Z,7.06
2018-05-02T05:50:45.182Z,7.24
2018-05-02T05:51:45.174Z,7.21
2018-05-02T05:52:45.160Z,7.25
2018-05-02T05:53:45.149Z,7.24
2018-05-02T05:54:45.140Z,7.29
2018-05-02T05:55:45.131Z,7.40
2018-05-02T05:56:45.119Z,7.43
2018-05-02T05:57:45.111Z,7.47
2018-05-02T05:58:45.097Z,7.51
2018-05-02T05:59:45.088Z,7.51
2018-05-02T06:00:45.147Z,7.73
2018-05-02T06:01:45.064Z,7.79
2018-05-02T06:02:45.055Z,7.82
2018-05-02T06:03:45.045Z,7.88
2018-05-02T06:04:45.034Z,7.94
2018-05-02T06:05:45.023Z,8.00
2018-05-02T06:06:45.104Z,8.03
2018-05-02T06:07:45.003Z,8.15
2018-05-02T06:08:45.003Z,8.13
2018-05-02T06:09:44.984Z,8.23
2018-05-02T06:10:44.971Z,8.28
2018-05-02T06:11:44.963Z,8.38
2018-05-02T06:12:45.020Z,8.44
2018-05-02T06:13:44.941Z,8.55
2018-05-02T06:14:44.931Z,8.55
2018-05-02T06:15:44.922Z,8.51
2018-05-02T06:16:44.910Z,8.63
2018-05-02T06:17:44.902Z,8.71
2018-05-02T06:18:44.987Z,8.81
2018-05-02T06:19:44.881Z,8.89
2018-05-02T06:20:44.870Z,8.95
2018-05-02T06:21:44.861Z,8.92
2018-05-02T06:22:44.851Z,8.92
2018-05-02T06:23:44.842Z,9.04
2018-05-02T06:24:44.832Z,9.10
2018-05-02T06:25:44.824Z,9.21
2018-05-02T06:26:44.812Z,9.28
2018-05-02T06:27:44.803Z,9.25
2018-05-02T06:28:44.792Z,9.37
2018-05-02T06:29:44.783Z,9.43
2018-05-02T06:30:44.773Z,9.55
2018-05-02T06:31:44.815Z,9.56
2018-05-02T06:32:44.754Z,9.56
2018-05-02T06:33:44.748Z,9.58
2018-05-02T06:34:44.735Z,9.66
2018-05-02T06:35:44.733Z,9.74
2018-05-02T06:36:44.717Z,9.79
2018-05-02T06:37:44.778Z,9.84
2018-05-02T06:38:44.698Z,9.87
2018-05-02T06:39:44.689Z,9.97
2018-05-02T06:40:44.679Z,9.89
2018-05-02T06:41:44.670Z,9.86
2018-05-02T06:42:44.660Z,9.98
2018-05-02T06:43:44.652Z,10.07
2018-05-02T06:44:44.642Z,10.15
2018-05-02T06:45:44.634Z,10.19
2018-05-02T06:46:44.624Z,10.15
2018-05-02T06:47:44.615Z,10.13
2018-05-02T06:48:44.607Z,10.19
2018-05-02T06:49:44.600Z,10.22
2018-05-02T06:50:44.587Z,10.40
2018-05-02T06:51:44.578Z,10.37
2018-05-02T06:52:44.570Z,10.44
2018-05-02T06:53:44.561Z,10.53
2018-05-02T06:54:44.583Z,10.60
2018-05-02T06:55:44.542Z,10.51
2018-05-02T06:56:44.532Z,10.72
2018-05-02T06:57:44.524Z,10.86
2018-05-02T06:58:44.515Z,10.81
2018-05-02T06:59:44.507Z,11.02
2018-05-02T07:00:44.502Z,11.05
2018-05-02T07:01:44.489Z,11.14
2018-05-02T07:02:44.482Z,11.29
2018-05-02T07:03:44.476Z,11.36
2018-05-02T07:04:44.465Z,11.40
2018-05-02T07:05:44.460Z,11.41
2018-05-02T07:06:44.450Z,11.59
2018-05-02T07:07:44.446Z,11.60
2018-05-02T07:08:44.439Z,11.73
2018-05-02T07:09:44.432Z,11.88
2018-05-02T07:10:44.428Z,11.99
2018-05-02T07:11:44.422Z,12.02
2018-05-02T07:12:44.417Z,12.15
2018-05-02T07:13:44.414Z,12.29
2018-05-02T07:14:44.424Z,12.31
2018-05-02T07:15:44.407Z,12.25
2018-05-02T07:16:44.404Z,12.29
2018-05-02T07:17:44.402Z,12.49
2018-05-02T07:18:44.400Z,12.60
2018-05-02T07:19:44.398Z,12.72
2018-05-02T07:20:44.396Z,12.93
2018-05-02T07:21:44.395Z,12.85
2018-05-02T07:22:44.394Z,12.91
2018-05-02T07:23:44.395Z,12.98
2018-05-02T07:24:44.393Z,13.11
2018-05-02T07:25:44.393Z,13.25
2018-05-02T07:26:44.393Z,13.38
2018-05-02T07:27:44.393Z,13.42
2018-05-02T07:28:44.395Z,13.47
2018-05-02T07:29:44.395Z,13.31
2018-05-02T07:30:44.396Z,13.25
2018-05-02T07:31:44.397Z,13.41
2018-05-02T07:32:44.543Z,13.25
2018-05-02T07:33:44.399Z,13.15
2018-05-02T07:34:44.400Z,13.09
2018-05-02T07:35:44.402Z,12.98
2018-05-02T07:36:44.402Z,13.12
2018-05-02T07:37:44.404Z,13.25
2018-05-02T07:38:44.406Z,13.42
2018-05-02T07:39:44.408Z,13.75
2018-05-02T07:40:44.415Z,13.86
2018-05-02T07:41:44.431Z,13.93
2018-05-02T07:42:44.414Z,14.08
2018-05-02T07:43:44.417Z,14.17
2018-05-02T07:44:44.419Z,14.12
2018-05-02T07:45:44.422Z,14.22
2018-05-02T07:46:44.425Z,14.30
2018-05-02T07:47:44.431Z,14.04
2018-05-02T07:48:44.447Z,13.87
2018-05-02T07:49:44.434Z,13.93
2018-05-02T07:50:44.437Z,13.81
2018-05-02T07:51:44.441Z,13.78
2018-05-02T07:52:44.444Z,13.67
2018-05-02T07:53:44.447Z,13.67
2018-05-02T07:54:44.457Z,13.74
2018-05-02T07:55:44.453Z,13.99
2018-05-02T07:56:44.456Z,14.22
2018-05-02T07:57:44.460Z,14.44
2018-05-02T07:58:44.464Z,14.45
2018-05-02T07:59:44.468Z,14.62
2018-05-02T08:00:44.471Z,14.70
2018-05-02T08:01:44.475Z,14.70
2018-05-02T08:02:44.480Z,14.70
2018-05-02T08:03:44.484Z,14.58
2018-05-02T08:04:44.488Z,14.36
2018-05-02T08:05:44.499Z,14.33
2018-05-02T08:06:44.498Z,14.55
2018-05-02T08:07:44.501Z,14.58
2018-05-02T08:08:44.505Z,14.68
2018-05-02T08:09:44.511Z,14.96
2018-05-02T08:10:44.516Z,15.33
2018-05-02T08:11:44.523Z,15.42
2018-05-02T08:12:44.527Z,15.54
2018-05-02T08:13:44.546Z,15.39
2018-05-02T08:14:44.538Z,15.33
2018-05-02T08:15:44.544Z,15.21
2018-05-02T08:16:44.549Z,15.24
2018-05-02T08:17:44.555Z,15.57
2018-05-02T08:18:44.561Z,15.86
2018-05-02T08:19:44.570Z,15.88
2018-05-02T08:20:44.574Z,15.95
2018-05-02T08:21:44.580Z,16.17
2018-05-02T08:22:44.588Z,16.04
2018-05-02T08:23:44.595Z,15.83
2018-05-02T08:24:44.601Z,15.57
2018-05-02T08:25:44.609Z,15.42
2018-05-02T08:26:44.615Z,15.21
2018-05-02T08:27:44.622Z,15.11
2018-05-02T08:28:44.628Z,15.06
2018-05-02T08:29:44.635Z,15.19
2018-05-02T08:30:44.641Z,15.46
2018-05-02T08:31:44.648Z,15.62
2018-05-02T08:32:44.653Z,15.57
2018-05-02T08:33:44.660Z,15.61
2018-05-02T08:40:00.143Z,15.52
2018-05-02T08:41:00.150Z,15.75
2018-05-02T08:42:00.156Z,16.13
2018-05-02T08:43:00.163Z,16.13
2018-05-02T08:44:00.170Z,16.08
2018-05-02T08:45:00.177Z,16.02
2018-05-02T08:46:00.228Z,16.12
2018-05-02T08:47:00.192Z,16.26
2018-05-02T08:48:00.199Z,16.43
2018-05-02T08:49:00.207Z,16.04
2018-05-02T08:50:00.257Z,15.88
2018-05-02T08:51:00.225Z,15.52
2018-05-02T08:52:00.228Z,15.57
2018-05-02T08:53:00.236Z,15.92
2018-05-02T08:54:00.243Z,15.90
2018-05-02T08:55:00.250Z,16.05
2018-05-02T08:56:00.257Z,16.33
2018-05-02T08:57:00.264Z,16.10
2018-05-02T08:58:00.271Z,15.98
2018-05-02T08:59:00.279Z,15.94
2018-05-02T09:00:00.286Z,16.08
2018-05-02T09:01:00.295Z,16.29
2018-05-02T09:02:00.300Z,16.32
2018-05-02T09:03:00.308Z,16.38
2018-05-02T09:04:00.316Z,16.61
2018-05-02T09:05:00.331Z,16.72
2018-05-02T09:06:00.330Z,16.84
2018-05-02T09:07:00.339Z,17.08
2018-05-02T09:09:00.428Z,17.87
2018-05-02T09:10:00.364Z,18.22
2018-05-02T09:11:00.376Z,18.13
2018-05-02T09:12:00.390Z,18.13
2018-05-02T09:13:00.392Z,17.97
2018-05-02T09:14:00.401Z,17.52
2018-05-02T09:15:00.414Z,17.38
2018-05-02T09:16:00.421Z,16.86
2018-05-02T09:17:00.431Z,16.83
2018-05-02T09:18:00.439Z,16.90
2018-05-02T09:19:00.448Z,17.16
2018-05-02T09:20:00.457Z,17.15
2018-05-02T09:21:00.466Z,17.15
2018-05-02T09:22:00.475Z,17.06
2018-05-02T09:23:00.484Z,17.11
2018-05-02T09:24:00.493Z,17.15
2018-05-02T09:25:00.503Z,16.93
2018-05-02T09:26:00.511Z,16.74
2018-05-02T09:27:00.521Z,16.64
2018-05-02T09:28:00.530Z,17.05
2018-05-02T09:29:00.539Z,17.27
2018-05-02T09:30:00.547Z,17.05
2018-05-02T09:31:00.556Z,17.05
2018-05-02T09:32:00.565Z,17.12
2018-05-02T09:33:00.573Z,16.96
2018-05-02T09:34:00.580Z,16.83
2018-05-02T09:35:00.589Z,16.96
2018-05-02T09:36:00.597Z,16.94
2018-05-02T09:37:00.605Z,16.75
2018-05-02T09:38:00.611Z,16.60
2018-05-02T09:39:00.619Z,16.41
2018-05-02T09:40:00.624Z,16.09
2018-05-02T09:41:00.629Z,16.32
2018-05-02T09:42:00.633Z,16.38
2018-05-02T09:43:00.638Z,16.39
2018-05-02T09:44:00.671Z,16.65
2018-05-02T09:45:00.648Z,16.65
2018-05-02T09:46:00.654Z,16.65
2018-05-02T09:47:00.657Z,16.65
2018-05-02T09:48:00.661Z,16.53
2018-05-02T09:49:00.666Z,16.50
2018-05-02T09:50:00.670Z,16.61
2018-05-02T09:51:00.673Z,16.64
2018-05-02T09:52:00.698Z,16.60
2018-05-02T09:53:00.683Z,16.97
2018-05-02T09:54:00.687Z,17.38
2018-05-02T09:55:00.693Z,17.57
2018-05-02T09:56:00.698Z,17.72
2018-05-02T09:57:00.705Z,18.08
2018-05-02T09:58:00.711Z,18.50
2018-05-02T09:59:00.718Z,18.50
2018-05-02T10:00:00.727Z,18.55
2018-05-02T10:01:00.734Z,18.43
2018-05-02T10:02:00.741Z,18.05
2018-05-02T10:03:00.751Z,17.74
2018-05-02T10:04:00.757Z,17.51
2018-05-02T10:05:00.764Z,17.31
2018-05-02T10:06:00.773Z,17.33
2018-05-02T10:07:00.787Z,17.48
2018-05-02T10:08:00.784Z,17.33
2018-05-02T10:09:00.792Z,17.19
2018-05-02T10:10:00.796Z,17.24
2018-05-02T10:11:00.801Z,17.24
2018-05-02T10:12:00.806Z,17.01
2018-05-02T10:13:00.814Z,16.89
2018-05-02T10:14:00.813Z,16.74
2018-05-02T10:15:00.816Z,16.26
2018-05-02T10:16:00.820Z,15.95
2018-05-02T10:17:00.821Z,15.98
2018-05-02T10:18:00.822Z,16.12
2018-05-02T10:19:00.824Z,16.26
2018-05-02T10:20:00.826Z,16.65
2018-05-02T10:21:00.828Z,16.66
2018-05-02T10:22:00.829Z,16.41
2018-05-02T10:23:00.832Z,16.46
2018-05-02T10:24:00.833Z,16.72
2018-05-02T10:25:00.836Z,16.66
2018-05-02T10:26:00.836Z,16.51
2018-05-02T10:27:00.838Z,16.35
2018-05-02T10:28:00.841Z,16.09
2018-05-02T10:29:00.842Z,16.08
2018-05-02T10:30:00.842Z,16.05
2018-05-02T10:31:00.850Z,15.97
2018-05-02T10:32:00.844Z,15.67
2018-05-02T10:33:00.845Z,15.52
2018-05-02T10:34:00.843Z,15.46
2018-05-02T10:35:00.843Z,15.44
2018-05-02T10:36:00.843Z,15.42
2018-05-02T10:37:00.894Z,15.52
2018-05-02T10:38:00.844Z,15.61
2018-05-02T10:39:00.842Z,15.92
2018-05-02T10:40:00.844Z,16.35
2018-05-02T10:41:00.840Z,16.96
2018-05-02T10:42:00.839Z,16.86
2018-05-02T10:43:00.902Z,16.94
2018-05-02T10:44:00.840Z,17.05
2018-05-02T10:45:00.841Z,17.01
2018-05-02T10:46:00.840Z,17.20
2018-05-02T10:47:00.845Z,17.63
2018-05-02T10:48:00.851Z,17.98
2018-05-02T10:49:00.845Z,18.28
2018-05-02T10:50:00.847Z,18.75
2018-05-02T10:51:00.854Z,18.81
2018-05-02T10:52:00.857Z,18.77
2018-05-02T10:53:00.860Z,18.58
2018-05-02T10:54:00.865Z,18.84
2018-05-02T10:55:00.870Z,19.19
2018-05-02T10:56:00.891Z,19.34
2018-05-02T10:57:00.887Z,19.48
2018-05-02T10:58:00.888Z,19.66
2018-05-02T10:59:00.896Z,19.74
2018-05-02T11:00:00.906Z,19.74
2018-05-02T11:01:00.914Z,19.41
2018-05-02T11:02:00.920Z,19.26
2018-05-02T11:03:00.928Z,19.24
2018-05-02T11:04:00.937Z,19.41
2018-05-02T11:05:00.948Z,19.66
2018-05-02T11:06:00.955Z,19.64
2018-05-02T11:07:00.964Z,19.40
2018-05-02T11:08:00.974Z,19.36
2018-05-02T11:09:00.983Z,19.19
2018-05-02T11:10:00.993Z,19.08
2018-05-02T11:11:01.008Z,19.29
2018-05-02T11:12:01.025Z,19.51
2018-05-02T11:13:01.022Z,19.59
2018-05-02T11:14:01.036Z,19.37
2018-05-02T11:15:01.042Z,19.39
2018-05-02T11:16:01.052Z,19.49
2018-05-02T11:17:01.067Z,19.44
2018-05-02T11:18:01.070Z,19.08
2018-05-02T11:19:01.085Z,18.83
2018-05-02T11:20:01.089Z,18.77
2018-05-02T11:21:01.097Z,19.15
2018-05-02T11:22:01.112Z,19.41
2018-05-02T11:23:01.115Z,19.67
2018-05-02T11:24:01.124Z,19.47
2018-05-02T11:25:01.133Z,19.30
2018-05-02T11:26:01.142Z,19.54
2018-05-02T11:27:01.152Z,19.67
2018-05-02T11:28:01.164Z,19.64
2018-05-02T11:29:01.171Z,19.62
2018-05-02T11:30:01.180Z,19.59
2018-05-02T11:31:01.191Z,19.67
2018-05-02T11:32:01.201Z,19.48
2018-05-02T11:33:01.210Z,19.21
2018-05-02T11:34:01.219Z,18.63
2018-05-02T11:35:01.228Z,18.37
2018-05-02T11:36:01.237Z,18.34
2018-05-02T11:37:01.245Z,18.80
2018-05-02T11:38:01.253Z,19.21
2018-05-02T11:39:01.262Z,19.51
2018-05-02T11:40:01.270Z,19.71
2018-05-02T11:41:01.280Z,19.66
2018-05-02T11:42:01.288Z,19.76
2018-05-02T11:43:01.298Z,19.89
2018-05-02T11:44:01.314Z,19.86
2018-05-02T11:45:01.317Z,19.84
2018-05-02T11:46:01.325Z,19.91
2018-05-02T11:47:01.335Z,20.11
2018-05-02T11:48:01.345Z,20.58
2018-05-02T11:49:01.354Z,20.74
2018-05-02T11:50:01.371Z,20.88
2018-05-02T11:51:01.373Z,21.03
2018-05-02T11:52:01.383Z,21.36
2018-05-02T11:53:01.393Z,21.22
2018-05-02T11:54:01.406Z,21.06
2018-05-02T11:55:01.413Z,20.93
2018-05-02T11:56:01.428Z,20.52
2018-05-02T11:57:01.433Z,20.36
2018-05-02T11:58:01.442Z,20.63
2018-05-02T11:59:01.452Z,20.62
2018-05-02T12:00:01.466Z,20.90
2018-05-02T12:01:01.473Z,21.03
2018-05-02T12:02:01.483Z,21.11
2018-05-02T12:03:01.493Z,20.90
2018-05-02T12:04:01.503Z,20.28
2018-05-02T12:05:01.513Z,19.89
2018-05-02T12:06:01.523Z,19.51
2018-05-02T12:07:01.532Z,19.40
2018-05-02T12:08:01.543Z,19.49
2018-05-02T12:09:01.552Z,19.49
2018-05-02T12:10:01.560Z,19.70
2018-05-02T12:11:01.570Z,20.11
2018-05-02T12:12:01.579Z,20.00
2018-05-02T12:13:01.590Z,19.81
2018-05-02T12:14:01.602Z,19.73
2018-05-02T12:15:01.607Z,19.49
2018-05-02T12:16:01.639Z,19.49
2018-05-02T12:17:01.631Z,19.66
2018-05-02T12:18:01.636Z,19.82
2018-05-02T12:19:01.641Z,20.09
2018-05-02T12:20:01.649Z,20.21
2018-05-02T12:21:01.658Z,20.22
2018-05-02T12:22:01.666Z,19.84
2018-05-02T12:23:01.676Z,19.30
2018-05-02T12:24:01.687Z,19.24
2018-05-02T12:25:01.691Z,19.70
2018-05-02T12:26:01.699Z,20.02
2018-05-02T12:27:01.708Z,20.13
2018-05-02T12:28:01.715Z,20.40
2018-05-02T12:29:01.723Z,20.62
2018-05-02T12:30:01.731Z,20.69
2018-05-02T12:31:01.738Z,20.70
2018-05-02T12:32:01.746Z,20.52
2018-05-02T12:33:01.756Z,20.21
2018-05-02T12:34:01.761Z,19.91
2018-05-02T12:35:01.771Z,19.88
2018-05-02T12:36:01.777Z,20.28
2018-05-02T12:37:01.781Z,20.75
2018-05-02T12:38:01.786Z,20.62
2018-05-02T12:39:01.799Z,20.77
2018-05-02T12:40:01.802Z,20.97
2018-05-02T12:41:01.808Z,20.81
2018-05-02T12:42:01.820Z,20.87
2018-05-02T12:43:01.824Z,20.78
2018-05-02T12:44:01.826Z,20.52
2018-05-02T12:45:01.833Z,20.65
2018-05-02T12:46:01.840Z,20.84
2018-05-02T12:47:01.844Z,21.03
2018-05-02T12:48:01.851Z,21.27
2018-05-02T12:49:01.859Z,20.78
2018-05-02T12:50:01.863Z,20.00
2018-05-02T12:51:01.869Z,20.02
2018-05-02T12:52:01.878Z,20.47
2018-05-02T12:53:01.880Z,20.65
2018-05-02T12:54:01.885Z,20.82
2018-05-02T12:55:01.893Z,21.05
2018-05-02T12:56:02.010Z,21.15
2018-05-02T12:57:01.901Z,21.09
2018-05-02T12:58:01.907Z,21.00
2018-05-02T12:59:01.913Z,20.87
2018-05-02T13:00:01.917Z,20.58
2018-05-02T13:01:01.927Z,20.40
2018-05-02T13:02:01.930Z,20.66
2018-05-02T13:03:01.932Z,20.77
2018-05-02T13:04:01.935Z,20.77
2018-05-02T13:05:01.944Z,21.14
2018-05-02T13:06:01.942Z,21.25
2018-05-02T13:07:01.946Z,21.36
2018-05-02T13:08:02.013Z,21.88
2018-05-02T13:09:01.956Z,22.36
2018-05-02T13:10:01.960Z,22.85
2018-05-02T13:11:01.966Z,23.08
2018-05-02T13:12:01.972Z,22.35